createdAt,value
2022-09-07T00:02:30.068Z,43.58
2022-09-07T00:05:01.967Z,43.76
2022-09-07T00:07:33.868Z,43.90
2022-09-07T00:10:06.233Z,44.06
2022-09-07T00:12:38.119Z,44.15
2022-09-07T00:15:12.969Z,44.25
2022-09-07T00:17:44.819Z,44.46
2022-09-07T00:20:16.806Z,44.70
2022-09-07T00:22:49.087Z,44.74
2022-09-07T00:25:21.035Z,44.92
2022-09-07T00:27:52.909Z,44.90
2022-09-07T00:30:24.751Z,45.00
2022-09-07T00:32:56.579Z,45.01
2022-09-07T00:35:28.541Z,45.21
2022-09-07T00:38:00.369Z,45.24
2022-09-07T00:40:32.482Z,45.28
2022-09-07T00:43:04.546Z,45.39
2022-09-07T00:45:36.418Z,45.52
2022-09-07T00:48:13.745Z,45.58
2022-09-07T00:50:48.998Z,45.60
2022-09-07T00:53:24.967Z,45.84
2022-09-07T00:55:57.898Z,45.88
2022-09-07T00:58:32.025Z,45.89
2022-09-07T01:01:04.487Z,46.08
2022-09-07T01:03:42.223Z,46.07
2022-09-07T01:06:17.908Z,46.25
2022-09-07T01:08:51.646Z,46.32
2022-09-07T01:11:24.985Z,46.45
2022-09-07T01:13:58.192Z,46.47
2022-09-07T01:16:42.933Z,46.64
2022-09-07T01:19:37.098Z,46.69
2022-09-07T01:22:30.203Z,46.88
2022-09-07T01:25:08.318Z,47.00
2022-09-07T01:28:06.975Z,47.01
2022-09-07T01:30:42.064Z,47.17
2022-09-07T01:33:29.754Z,47.23
2022-09-07T01:36:12.621Z,47.31
2022-09-07T01:38:47.531Z,47.39
2022-09-07T01:41:40.136Z,47.58
2022-09-07T01:44:18.241Z,47.83
2022-09-07T01:46:57.973Z,47.73
2022-09-07T01:49:36.335Z,47.80
2022-09-07T01:52:12.835Z,47.95
2022-09-07T01:54:51.140Z,47.94
2022-09-07T01:57:28.629Z,48.07
2022-09-07T02:00:08.683Z,48.09
2022-09-07T02:02:52.757Z,48.06
2022-09-07T02:05:28.529Z,48.23
2022-09-07T02:08:07.438Z,48.23
2022-09-07T02:10:42.169Z,48.36
2022-09-07T02:13:19.116Z,48.45
2022-09-07T02:15:51.880Z,48.51
2022-09-07T02:18:26.025Z,48.54
2022-09-07T02:21:00.780Z,48.68
2022-09-07T02:23:38.417Z,48.77
2022-09-07T02:26:16.445Z,48.78
2022-09-07T02:28:48.853Z,48.99
2022-09-07T02:31:20.987Z,48.95
2022-09-07T02:33:53.116Z,49.09
2022-09-07T02:36:27.570Z,49.14
2022-09-07T02:38:59.542Z,49.33
2022-09-07T02:41:37.219Z,49.25
2022-09-07T02:44:14.136Z,49.42
2022-09-07T02:47:07.005Z,49.53
2022-09-07T02:49:57.257Z,49.54
2022-09-07T02:52:41.126Z,49.79
2022-09-07T02:55:27.123Z,49.71
2022-09-07T02:58:10.509Z,50.07
2022-09-07T03:00:50.229Z,50.02
2022-09-07T03:03:30.714Z,50.06
2022-09-07T03:06:05.956Z,50.29
2022-09-07T03:08:42.839Z,50.31
2022-09-07T03:11:14.295Z,50.25
2022-09-07T03:13:46.140Z,50.22
2022-09-07T03:16:18.640Z,50.23
2022-09-07T03:18:50.967Z,50.40
2022-09-07T03:21:22.861Z,50.53
2022-09-07T03:23:55.238Z,50.56
2022-09-07T03:26:27.354Z,50.70
2022-09-07T03:28:59.511Z,50.54
2022-09-07T03:31:32.914Z,50.78
2022-09-07T03:34:05.374Z,50.77
2022-09-07T03:36:37.650Z,50.68
2022-09-07T03:39:09.819Z,50.78
2022-09-07T03:41:42.261Z,50.90
2022-09-07T03:44:14.253Z,50.94
2022-09-07T03:46:46.148Z,50.84
2022-09-07T03:49:19.140Z,50.93
2022-09-07T03:51:50.996Z,50.96
2022-09-07T03:54:23.392Z,51.14
2022-09-07T03:56:55.292Z,50.99
2022-09-07T03:59:27.448Z,51.09
2022-09-07T04:01:59.338Z,51.18
2022-09-07T04:04:31.296Z,51.07
2022-09-07T04:07:03.890Z,51.20
2022-09-07T04:09:35.796Z,51.22
2022-09-07T04:12:08.029Z,51.15
2022-09-07T04:14:40.029Z,51.25
2022-09-07T04:17:14.778Z,51.14
2022-09-07T04:19:46.565Z,51.28
2022-09-07T04:22:18.501Z,51.09
2022-09-07T04:24:50.293Z,50.81
2022-09-07T04:27:22.181Z,50.56
2022-09-07T04:29:53.987Z,50.19
2022-09-07T04:32:25.912Z,49.83
2022-09-07T04:34:57.721Z,49.47
2022-09-07T04:37:30.121Z,48.94
2022-09-07T04:40:02.054Z,48.10
2022-09-07T04:42:34.048Z,47.62
2022-09-07T04:45:06.396Z,46.65
2022-09-07T04:47:40.504Z,45.54
2022-09-07T04:50:13.034Z,44.73
2022-09-07T04:52:45.109Z,43.32
2022-09-07T04:55:17.437Z,42.38
2022-09-07T04:57:51.311Z,41.50
2022-09-07T05:00:23.417Z,40.71
2022-09-07T05:02:55.339Z,39.79
2022-09-07T05:05:27.197Z,39.09
2022-09-07T05:07:59.096Z,38.15
2022-09-07T05:10:31.026Z,37.40
2022-09-07T05:13:03.261Z,36.65
2022-09-07T05:15:35.104Z,36.10
2022-09-07T05:18:07.159Z,35.30
2022-09-07T05:20:38.987Z,34.43
2022-09-07T05:23:10.992Z,33.73
2022-09-07T05:25:47.708Z,33.02
2022-09-07T05:28:19.771Z,32.29
2022-09-07T05:36:41.048Z,30.37
2022-09-07T05:39:12.952Z,29.87
2022-09-07T05:41:44.809Z,29.06
2022-09-07T05:47:09.355Z,28.29
2022-09-07T05:49:41.420Z,27.83
2022-09-07T05:52:13.467Z,27.44
2022-09-07T05:54:45.473Z,27.15
2022-09-07T05:57:17.399Z,26.55
2022-09-07T05:59:49.350Z,26.10
2022-09-07T06:02:21.641Z,25.35
2022-09-07T06:04:53.871Z,25.30
2022-09-07T06:07:25.695Z,25.03
2022-09-07T06:12:50.069Z,23.90
2022-09-07T06:15:22.070Z,23.74
2022-09-07T06:17:54.381Z,23.54
2022-09-07T06:20:26.277Z,22.77
2022-09-07T06:22:58.154Z,22.27
2022-09-07T06:25:30.045Z,21.63
2022-09-07T06:28:02.282Z,21.44
2022-09-07T06:30:34.454Z,20.88
2022-09-07T06:33:06.421Z,20.33
2022-09-07T06:35:38.574Z,19.71
2022-09-07T06:38:10.673Z,19.66
2022-09-07T06:40:44.081Z,19.18
2022-09-07T06:43:15.972Z,19.24
2022-09-07T06:45:55.367Z,19.29
2022-09-07T06:48:27.969Z,19.51
2022-09-07T06:51:01.814Z,19.17
2022-09-07T06:53:37.627Z,18.84
2022-09-07T06:56:14.018Z,18.67
2022-09-07T06:58:46.410Z,18.64
2022-09-07T07:01:20.700Z,18.22
2022-09-07T07:03:54.348Z,17.81
2022-09-07T07:06:33.793Z,17.13
2022-09-07T07:09:06.951Z,16.50
2022-09-07T07:11:38.917Z,16.58
2022-09-07T07:14:12.624Z,16.02
2022-09-07T07:16:45.006Z,16.71
2022-09-07T07:19:17.398Z,15.99
2022-09-07T07:22:10.774Z,15.83
2022-09-07T07:24:41.164Z,15.91
2022-09-07T07:27:13.064Z,15.70
2022-09-07T07:29:45.915Z,15.81
2022-09-07T07:32:18.292Z,16.21
2022-09-07T07:34:50.357Z,16.13
2022-09-07T07:37:27.401Z,16.15
2022-09-07T07:40:17.426Z,16.09
2022-09-07T07:42:51.882Z,16.14
2022-09-07T07:48:15.797Z,16.74
2022-09-07T07:50:57.709Z,17.20
2022-09-07T07:53:45.933Z,17.36
2022-09-07T07:56:18.340Z,17.26
2022-09-07T07:58:52.747Z,16.30
2022-09-07T08:01:24.973Z,16.38
2022-09-07T08:03:56.807Z,16.71
2022-09-07T08:06:28.722Z,16.93
2022-09-07T08:09:00.544Z,17.10
2022-09-07T08:11:32.479Z,16.65
2022-09-07T08:14:06.783Z,16.80
2022-09-07T08:16:38.751Z,16.98
2022-09-07T08:19:10.775Z,17.12
2022-09-07T08:21:42.657Z,16.97
2022-09-07T08:24:15.063Z,16.85
2022-09-07T08:26:48.362Z,17.20
2022-09-07T08:29:23.231Z,17.20
2022-09-07T08:31:55.551Z,17.32
2022-09-07T08:34:27.541Z,17.43
2022-09-07T08:36:59.778Z,18.19
2022-09-07T08:39:31.729Z,18.45
2022-09-07T08:42:27.894Z,19.25
2022-09-07T08:45:04.108Z,19.06
2022-09-07T08:47:42.312Z,18.35
2022-09-07T08:50:19.755Z,18.18
2022-09-07T08:52:56.674Z,18.69
2022-09-07T08:55:33.480Z,18.65
2022-09-07T08:58:22.213Z,19.03
2022-09-07T09:04:17.225Z,18.18
2022-09-07T09:07:05.224Z,17.75
2022-09-07T09:09:56.191Z,18.10
2022-09-07T09:12:37.684Z,17.99
2022-09-07T09:15:21.571Z,17.92
2022-09-07T09:18:04.079Z,17.64
2022-09-07T09:20:42.922Z,17.80
2022-09-07T09:23:17.107Z,17.88
2022-09-07T09:25:54.783Z,18.22
2022-09-07T09:28:28.954Z,18.60
2022-09-07T09:31:05.090Z,18.62
2022-09-07T09:33:37.518Z,18.65
2022-09-07T09:36:32.657Z,18.16
2022-09-07T09:39:27.617Z,17.99
2022-09-07T09:42:03.202Z,18.22
2022-09-07T09:44:38.464Z,18.51
2022-09-07T09:47:30.272Z,18.84
2022-09-07T09:50:06.916Z,19.31
2022-09-07T09:52:49.203Z,19.91
2022-09-07T09:55:34.952Z,20.12
2022-09-07T10:01:28.140Z,19.39
2022-09-07T10:04:20.289Z,19.57
2022-09-07T10:06:56.315Z,18.99
2022-09-07T10:09:37.849Z,18.69
2022-09-07T10:12:24.158Z,18.55
2022-09-07T10:14:56.723Z,19.19
2022-09-07T10:17:34.403Z,19.64
2022-09-07T10:20:34.907Z,18.96
2022-09-07T10:23:20.079Z,19.54
2022-09-07T10:25:52.225Z,19.92
2022-09-07T10:29:06.019Z,20.40
2022-09-07T10:31:23.020Z,20.52
2022-09-07T10:37:03.208Z,19.65
2022-09-07T10:39:38.862Z,19.67
2022-09-07T10:42:26.214Z,19.57
2022-09-07T10:45:07.454Z,19.94
2022-09-07T10:47:50.072Z,19.77
2022-09-07T10:50:31.063Z,19.67
2022-09-07T10:53:40.603Z,19.89
2022-09-07T10:56:15.948Z,20.20
2022-09-07T10:59:02.217Z,20.58
2022-09-07T11:01:44.705Z,21.00
2022-09-07T11:04:38.535Z,20.27
2022-09-07T11:07:23.558Z,20.13
2022-09-07T11:10:01.331Z,19.95
2022-09-07T11:12:38.296Z,20.34
2022-09-07T11:15:20.111Z,20.50
2022-09-07T11:17:57.272Z,20.12
2022-09-07T11:20:34.428Z,20.12
2022-09-07T11:23:15.589Z,20.37
2022-09-07T11:25:58.690Z,21.18
2022-09-07T11:28:38.156Z,20.83
2022-09-07T11:31:20.691Z,20.61
2022-09-07T11:37:02.332Z,19.87
2022-09-07T11:39:40.362Z,20.35
2022-09-07T11:45:20.883Z,20.51
2022-09-07T11:47:59.291Z,21.11
2022-09-07T11:50:35.304Z,21.17
2022-09-07T11:53:15.364Z,20.68
2022-09-07T11:55:51.144Z,21.11
2022-09-07T11:58:38.865Z,21.06
2022-09-07T12:01:25.389Z,21.14
2022-09-07T12:04:17.626Z,21.00
2022-09-07T12:07:03.344Z,21.35
2022-09-07T12:09:54.257Z,21.41
2022-09-07T12:12:42.240Z,21.47
2022-09-07T12:15:27.091Z,21.43
2022-09-07T12:18:14.073Z,21.46
2022-09-07T12:20:47.619Z,21.76
2022-09-07T12:23:28.998Z,21.65
2022-09-07T12:26:50.122Z,21.48
2022-09-07T12:29:25.662Z,21.21
2022-09-07T12:32:07.384Z,21.24
2022-09-07T12:34:54.494Z,21.50
2022-09-07T12:37:41.992Z,22.06
2022-09-07T12:40:50.230Z,22.33
2022-09-07T12:44:02.006Z,21.34
2022-09-07T12:46:53.029Z,21.42
2022-09-07T12:49:58.595Z,21.49
2022-09-07T12:52:53.421Z,21.90
2022-09-07T12:58:58.112Z,22.42
2022-09-07T13:01:44.945Z,22.64
2022-09-07T13:04:42.661Z,22.39
2022-09-07T13:07:36.623Z,21.92
2022-09-07T13:10:27.135Z,21.70
2022-09-07T13:13:04.909Z,21.54
2022-09-07T13:15:42.028Z,21.75
2022-09-07T13:18:35.949Z,21.69
2022-09-07T13:21:36.326Z,21.26
2022-09-07T13:24:47.413Z,21.61
2022-09-07T13:27:44.673Z,21.79
2022-09-07T13:30:27.623Z,21.62
2022-09-07T13:33:30.136Z,22.02
2022-09-07T13:36:05.052Z,22.06
2022-09-07T13:38:42.841Z,22.03
2022-09-07T13:41:20.049Z,21.45
2022-09-07T13:43:59.626Z,21.43
2022-09-07T13:46:55.304Z,21.34
2022-09-07T13:49:47.017Z,21.16
2022-09-07T13:52:24.801Z,21.17
2022-09-07T13:55:27.234Z,21.49
2022-09-07T13:58:12.246Z,21.17
2022-09-07T14:00:55.418Z,21.28
2022-09-07T14:03:31.438Z,21.62
2022-09-07T14:06:31.263Z,21.70
2022-09-07T14:09:05.791Z,21.25
2022-09-07T14:11:46.414Z,21.58
2022-09-07T14:14:21.393Z,21.46
2022-09-07T14:17:02.447Z,21.69
2022-09-07T14:19:41.757Z,22.45
2022-09-07T14:22:17.822Z,22.68
2022-09-07T14:24:53.590Z,22.50
2022-09-07T14:27:27.771Z,22.35
2022-09-07T14:30:18.225Z,22.17
2022-09-07T14:32:52.483Z,21.95
2022-09-07T14:35:26.962Z,21.86
2022-09-07T14:38:05.866Z,22.11
2022-09-07T14:40:38.110Z,22.09
2022-09-07T14:43:30.289Z,22.40
2022-09-07T14:46:19.797Z,22.51
2022-09-07T14:48:55.273Z,21.90
2022-09-07T14:51:35.515Z,22.06
2022-09-07T14:54:10.585Z,22.40
2022-09-07T14:56:43.776Z,22.23
2022-09-07T14:59:42.604Z,22.59
2022-09-07T15:02:37.068Z,22.50
2022-09-07T15:05:29.833Z,22.69
2022-09-07T15:08:03.376Z,22.51
2022-09-07T15:10:41.202Z,22.73
2022-09-07T15:13:32.252Z,23.10
2022-09-07T15:16:06.805Z,23.10
2022-09-07T15:18:55.804Z,23.01
2022-09-07T15:21:29.331Z,23.29
2022-09-07T15:24:03.903Z,23.47
2022-09-07T15:29:34.877Z,23.77
2022-09-07T15:32:12.465Z,24.38
2022-09-07T15:34:44.307Z,23.90
2022-09-07T15:40:17.729Z,23.68
2022-09-07T15:43:16.384Z,23.56
2022-09-07T15:45:41.472Z,23.82
2022-09-07T15:48:17.369Z,23.83
2022-09-07T15:50:49.681Z,23.37
2022-09-07T15:56:13.693Z,23.44
2022-09-07T15:58:45.725Z,23.32
2022-09-07T16:04:13.713Z,23.66
2022-09-07T16:06:48.123Z,23.90
2022-09-07T16:09:21.699Z,24.05
2022-09-07T16:11:54.116Z,23.95
2022-09-07T16:14:26.286Z,23.81
2022-09-07T16:19:50.191Z,23.98
2022-09-07T16:25:14.611Z,24.29
2022-09-07T16:27:46.545Z,24.42
2022-09-07T16:30:18.647Z,24.54
2022-09-07T16:32:50.907Z,24.55
2022-09-07T16:35:23.119Z,24.55
2022-09-07T16:40:48.490Z,24.39
2022-09-07T16:43:20.569Z,24.37
2022-09-07T16:46:04.470Z,24.80
2022-09-07T16:48:37.471Z,24.75
2022-09-07T16:51:10.702Z,24.88
2022-09-07T16:53:43.131Z,24.85
2022-09-07T16:56:17.156Z,24.86
2022-09-07T16:58:51.422Z,24.83
2022-09-07T17:01:26.246Z,24.90
2022-09-07T17:03:58.347Z,25.02
2022-09-07T17:06:32.083Z,25.24
2022-09-07T17:09:05.022Z,25.45
2022-09-07T17:11:38.552Z,25.35
2022-09-07T17:14:10.549Z,25.42
2022-09-07T17:16:43.158Z,25.46
2022-09-07T17:19:31.857Z,25.48
2022-09-07T17:22:04.307Z,25.66
2022-09-07T17:24:36.420Z,25.81
2022-09-07T17:27:08.457Z,26.06
2022-09-07T17:29:40.566Z,26.18
2022-09-07T17:32:27.825Z,26.19
2022-09-07T17:35:00.568Z,26.35
2022-09-07T17:37:33.775Z,26.56
2022-09-07T17:40:07.499Z,26.61
2022-09-07T17:45:33.727Z,26.99
2022-09-07T17:48:05.870Z,26.91
2022-09-07T17:50:37.678Z,26.81
2022-09-07T17:53:09.745Z,27.07
2022-09-07T17:55:41.701Z,27.05
2022-09-07T17:58:14.014Z,26.97
2022-09-07T18:00:46.653Z,26.95
2022-09-07T18:03:19.094Z,27.03
2022-09-07T18:05:55.814Z,27.02
2022-09-07T18:08:28.664Z,27.16
2022-09-07T18:13:59.967Z,27.46
2022-09-07T18:16:34.378Z,27.44
2022-09-07T18:19:08.674Z,27.52
2022-09-07T18:21:42.477Z,27.67
2022-09-07T18:24:17.856Z,27.96
2022-09-07T18:26:52.562Z,28.15
2022-09-07T18:29:29.940Z,28.01
2022-09-07T18:32:09.409Z,28.18
2022-09-07T18:34:45.874Z,28.12
2022-09-07T18:37:21.735Z,28.18
2022-09-07T18:39:54.598Z,28.31
2022-09-07T18:42:26.617Z,28.57
2022-09-07T18:47:50.314Z,28.77
2022-09-07T18:50:23.299Z,29.01
2022-09-07T18:53:04.164Z,28.96
2022-09-07T18:55:46.172Z,28.94
2022-09-07T18:58:19.332Z,28.99
2022-09-07T19:00:57.683Z,29.13
2022-09-07T19:03:29.723Z,29.19
2022-09-07T19:06:03.879Z,29.29
2022-09-07T19:08:37.506Z,29.56
2022-09-07T19:11:10.778Z,29.59
2022-09-07T19:13:42.655Z,29.70
2022-09-07T19:16:17.163Z,29.78
2022-09-07T19:18:50.231Z,29.96
2022-09-07T19:21:24.246Z,29.95
2022-09-07T19:24:01.963Z,30.03
2022-09-07T19:26:36.526Z,30.19
2022-09-07T19:29:15.734Z,30.12
2022-09-07T19:32:04.163Z,30.15
2022-09-07T19:34:39.343Z,30.39
2022-09-07T19:37:12.986Z,30.41
2022-09-07T19:39:45.023Z,30.37
2022-09-07T19:42:17.113Z,30.54
2022-09-07T19:44:49.107Z,30.59
2022-09-07T19:47:21.167Z,30.65
2022-09-07T19:49:53.464Z,30.76
2022-09-07T19:52:25.596Z,30.76
2022-09-07T19:55:00.402Z,30.82
2022-09-07T19:57:32.589Z,31.01
2022-09-07T20:00:05.439Z,31.13
2022-09-07T20:02:43.997Z,31.11
2022-09-07T20:05:16.882Z,31.11
2022-09-07T20:07:48.732Z,31.21
2022-09-07T20:10:20.641Z,31.33
2022-09-07T20:12:52.631Z,31.30
2022-09-07T20:15:24.713Z,31.42
2022-09-07T20:17:56.609Z,31.49
2022-09-07T20:20:28.489Z,31.44
2022-09-07T20:23:00.286Z,31.49
2022-09-07T20:25:32.117Z,31.56
2022-09-07T20:28:04.178Z,31.59
2022-09-07T20:30:36.068Z,31.57
2022-09-07T20:33:07.888Z,31.68
2022-09-07T20:35:43.663Z,31.76
2022-09-07T20:38:17.186Z,31.92
2022-09-07T20:40:57.318Z,31.86
2022-09-07T20:43:30.792Z,32.01
2022-09-07T20:46:02.952Z,32.25
2022-09-07T20:48:35.103Z,32.28
2022-09-07T20:51:09.572Z,32.44
2022-09-07T20:53:42.088Z,32.52
2022-09-07T20:56:15.621Z,32.64
2022-09-07T20:58:48.647Z,32.68
2022-09-07T21:01:21.318Z,32.70
2022-09-07T21:03:55.017Z,32.87
2022-09-07T21:06:28.765Z,32.90
2022-09-07T21:09:01.134Z,32.98
2022-09-07T21:11:35.281Z,32.98
2022-09-07T21:14:08.839Z,33.11
2022-09-07T21:16:41.341Z,33.21
2022-09-07T21:19:13.189Z,33.26
2022-09-07T21:21:45.602Z,33.41
2022-09-07T21:24:20.845Z,33.59
2022-09-07T21:26:53.731Z,33.60
2022-09-07T21:29:26.650Z,33.66
2022-09-07T21:31:58.479Z,33.73
2022-09-07T21:34:30.334Z,33.77
2022-09-07T21:37:02.135Z,33.59
2022-09-07T21:39:34.248Z,33.75
2022-09-07T21:42:06.483Z,33.77
2022-09-07T21:44:38.441Z,33.88
2022-09-07T21:47:10.305Z,33.98
2022-09-07T21:49:44.556Z,33.95
2022-09-07T21:52:16.430Z,33.94
2022-09-07T21:54:48.273Z,34.01
2022-09-07T21:57:20.062Z,34.10
2022-09-07T21:59:51.840Z,34.22
2022-09-07T22:02:23.946Z,34.07
2022-09-07T22:04:55.960Z,34.23
2022-09-07T22:07:27.845Z,34.28
2022-09-07T22:09:59.610Z,34.20
2022-09-07T22:12:31.483Z,34.25
2022-09-07T22:15:03.965Z,34.44
2022-09-07T22:17:35.822Z,34.50
2022-09-07T22:20:09.644Z,34.56
2022-09-07T22:22:41.438Z,34.65
2022-09-07T22:25:13.382Z,34.69
2022-09-07T22:27:45.184Z,34.73
2022-09-07T22:30:17.589Z,34.84
2022-09-07T22:32:50.537Z,34.83
2022-09-07T22:35:22.728Z,34.81
2022-09-07T22:37:54.785Z,34.95
2022-09-07T22:40:26.610Z,35.03
2022-09-07T22:42:58.417Z,35.08
2022-09-07T22:45:30.318Z,35.14
2022-09-07T22:48:02.514Z,35.08
2022-09-07T22:50:34.894Z,35.23
2022-09-07T22:53:06.669Z,35.27
2022-09-07T22:55:42.048Z,35.43
2022-09-07T22:58:13.917Z,35.49
2022-09-07T23:00:47.019Z,35.57
2022-09-07T23:03:19.541Z,35.61
2022-09-07T23:05:51.432Z,35.70
2022-09-07T23:08:23.299Z,35.82
2022-09-07T23:10:55.683Z,35.90
2022-09-07T23:13:27.837Z,36.09
2022-09-07T23:16:03.389Z,36.15
2022-09-07T23:18:36.125Z,36.12
2022-09-07T23:21:08.393Z,36.29
2022-09-07T23:23:40.460Z,36.40
2022-09-07T23:26:12.425Z,36.39
2022-09-07T23:28:44.240Z,36.49
2022-09-07T23:31:16.067Z,36.66
2022-09-07T23:33:47.933Z,36.63
2022-09-07T23:36:20.563Z,36.68
2022-09-07T23:38:54.556Z,36.88
2022-09-07T23:41:27.570Z,36.80
2022-09-07T23:43:59.858Z,36.95
2022-09-07T23:46:31.860Z,37.02
2022-09-07T23:49:03.811Z,37.20
2022-09-07T23:51:36.100Z,37.06
2022-09-07T23:54:08.240Z,37.17
2022-09-07T23:56:40.077Z,37.19
2022-09-07T23:59:12.649Z,37.34
